Bayou Goula, Louisiana
Current Conditions -  °F | °C
As of 1:55 AM on Friday 31 Oct 2014 (Local Time) from KL38 Reporting Station
Clear Clear  
Wind Chill: 50°   Ceiling: Unl
Heat Index: 50°   Visibility: 10mi
Dew Point: 50°   Wind: 3mph
Humidity: 99%   Direction: 340°NNW
Pressure: 30.06"   Gusts: NA
Location:  30.21°N, 91.17°W
Report Text: KL38 310655Z AUTO 34003KT 10SM CLR 10/10 A3006 RMK AO2 T01000099
Loading
Personal Weather Stations






























Interactive Weather Map
Tropical Storm Tracking
New forecast layout! Learn more

10-Day Weather Forecast

Advertisements
Track Severe Weather on mobile